Time;durP1;ratioP1;P1;durP2;ratioP2;P2;SDS_P1;SDS_P2;PMS_P1;PMS_P2;Temp;Humidity;BMP_temperature;BMP_pressure;BME280_temperature;BME280_humidity;BME280_pressure;Samples;Min_cycle;Max_cycle;Signal;HPM_P1;HPM_P2
2023/12/05 00:00:29;;;;;;;18.63;15.32;;;6.20;99.90;;;;;;5096064;28;20035;-70
2023/12/05 00:02:56;;;;;;;18.98;16.25;;;6.20;99.90;;;;;;5095902;28;20047;-71
2023/12/05 00:05:22;;;;;;;19.25;15.73;;;6.20;99.90;;;;;;5094730;28;20051;-71
2023/12/05 00:07:49;;;;;;;19.40;16.13;;;6.10;99.90;;;;;;5096057;28;20040;-71
2023/12/05 00:10:16;;;;;;;20.38;17.48;;;6.10;99.90;;;;;;5094512;28;20468;-71
2023/12/05 00:12:43;;;;;;;20.10;16.15;;;6.10;99.90;;;;;;5092237;28;20063;-72
2023/12/05 00:15:10;;;;;;;19.15;15.48;;;6.10;99.90;;;;;;5095614;28;20036;-71
2023/12/05 00:17:37;;;;;;;20.17;17.23;;;6.10;99.90;;;;;;5094495;28;20479;-66
2023/12/05 00:20:04;;;;;;;19.92;16.25;;;6.10;99.90;;;;;;5094323;28;20122;-66
2023/12/05 00:22:31;;;;;;;19.83;16.20;;;6.10;99.90;;;;;;5095773;28;20105;-66
2023/12/05 00:24:57;;;;;;;20.88;15.82;;;6.20;99.90;;;;;;5094484;28;20381;-66
2023/12/05 00:27:24;;;;;;;19.42;15.93;;;6.20;99.90;;;;;;5095393;28;20492;-66
2023/12/05 00:29:51;;;;;;;21.05;15.25;;;6.20;99.90;;;;;;5095436;28;20097;-66
2023/12/05 00:32:18;;;;;;;17.60;14.50;;;6.10;99.90;;;;;;5095470;28;20447;-66
2023/12/05 00:34:47;;;;;;;15.40;12.70;;;6.10;99.90;;;;;;5095543;28;20048;-66
2023/12/05 00:37:14;;;;;;;17.63;12.10;;;6.10;99.90;;;;;;5094353;28;20044;-67
2023/12/05 00:39:41;;;;;;;14.55;12.40;;;6.00;99.90;;;;;;5095318;28;20048;-66
2023/12/05 00:42:08;;;;;;;16.33;13.30;;;6.00;99.90;;;;;;5094732;28;20071;-66
2023/12/05 00:44:35;;;;;;;18.50;14.00;;;6.00;99.90;;;;;;5093771;28;20094;-66
2023/12/05 00:47:04;;;;;;;14.98;13.32;;;6.00;99.90;;;;;;5095203;28;20039;-66
2023/12/05 00:49:35;;;;;;;15.18;11.70;;;6.10;99.90;;;;;;5095198;28;20358;-66
2023/12/05 00:52:02;;;;;;;13.23;11.10;;;6.00;99.90;;;;;;5094613;28;20044;-66
2023/12/05 00:54:29;;;;;;;12.88;11.50;;;6.00;99.90;;;;;;5094945;28;20469;-66
2023/12/05 00:56:56;;;;;;;13.32;11.20;;;6.00;99.90;;;;;;5094614;28;20070;-66
2023/12/05 00:59:23;;;;;;;12.45;10.68;;;6.00;99.90;;;;;;5094890;28;20047;-66
2023/12/05 01:01:50;;;;;;;14.15;10.77;;;6.00;99.90;;;;;;5093544;28;20469;-72
2023/12/05 01:04:17;;;;;;;12.10;10.75;;;6.00;99.90;;;;;;5094852;28;20051;-72
2023/12/05 01:06:44;;;;;;;13.88;11.32;;;6.00;99.90;;;;;;5094518;28;20105;-71
2023/12/05 01:09:11;;;;;;;12.77;9.60;;;6.00;99.90;;;;;;5094705;28;20123;-67
2023/12/05 01:11:38;;;;;;;13.02;10.73;;;6.00;99.90;;;;;;5094348;28;20123;-66
2023/12/05 01:14:05;;;;;;;13.95;9.77;;;6.00;99.90;;;;;;5094512;28;20068;-67
2023/12/05 01:16:32;;;;;;;12.43;10.80;;;6.00;99.90;;;;;;5093408;28;20039;-67
2023/12/05 01:18:59;;;;;;;11.73;10.52;;;6.00;99.90;;;;;;5094428;28;20039;-67
2023/12/05 01:21:26;;;;;;;12.73;11.43;;;6.00;99.90;;;;;;5094096;28;20043;-66
2023/12/05 01:23:53;;;;;;;11.38;9.25;;;6.00;99.90;;;;;;5094642;28;20036;-66
2023/12/05 01:26:23;;;;;;;10.50;9.43;;;6.00;99.90;;;;;;5094509;28;20039;-66
2023/12/05 01:28:50;;;;;;;10.15;8.52;;;5.90;99.90;;;;;;5094092;28;20129;-66
2023/12/05 01:31:16;;;;;;;11.45;9.85;;;5.90;99.90;;;;;;5094701;28;20388;-66
2023/12/05 01:33:43;;;;;;;11.25;9.32;;;5.90;99.90;;;;;;5094234;28;20044;-66
2023/12/05 01:36:10;;;;;;;9.63;8.63;;;5.90;99.90;;;;;;5093902;28;20047;-67
2023/12/05 01:38:37;;;;;;;11.52;9.82;;;5.90;99.90;;;;;;5093960;28;20040;-66
2023/12/05 01:41:04;;;;;;;13.00;10.43;;;5.90;99.90;;;;;;5094009;28;20044;-66
2023/12/05 01:43:31;;;;;;;10.90;9.52;;;5.90;99.90;;;;;;5094462;28;20040;-66
2023/12/05 01:45:57;;;;;;;10.52;8.95;;;6.00;99.90;;;;;;5094045;28;20044;-67
2023/12/05 01:48:24;;;;;;;10.02;8.55;;;6.00;99.90;;;;;;5093949;28;20042;-67
2023/12/05 01:50:51;;;;;;;10.65;9.55;;;6.00;99.90;;;;;;5093811;28;20047;-66
2023/12/05 01:53:18;;;;;;;10.10;9.07;;;6.00;99.90;;;;;;5092591;28;20047;-66
2023/12/05 01:55:45;;;;;;;10.63;9.35;;;6.00;99.90;;;;;;5093863;28;20073;-66
2023/12/05 01:58:11;;;;;;;10.38;9.05;;;6.00;99.90;;;;;;5092308;28;20048;-66
2023/12/05 02:00:38;;;;;;;9.90;8.52;;;6.00;99.90;;;;;;5093743;28;20036;-66
2023/12/05 02:03:05;;;;;;;10.13;8.23;;;6.00;99.90;;;;;;5094203;28;20043;-66
2023/12/05 02:05:32;;;;;;;9.52;8.02;;;6.00;99.90;;;;;;5094147;28;20070;-67
2023/12/05 02:07:59;;;;;;;8.18;7.10;;;5.90;99.90;;;;;;5093666;28;20040;-66
2023/12/05 02:10:26;;;;;;;7.63;6.82;;;5.90;99.90;;;;;;5093736;28;20457;-66
2023/12/05 02:12:52;;;;;;;8.07;6.72;;;5.90;99.90;;;;;;5093605;28;20454;-66
2023/12/05 02:15:19;;;;;;;8.00;7.20;;;5.90;99.90;;;;;;5093507;28;20043;-66
2023/12/05 02:17:46;;;;;;;7.55;6.72;;;6.00;99.90;;;;;;5093781;28;20043;-66
2023/12/05 02:20:13;;;;;;;8.60;7.50;;;5.90;99.90;;;;;;5093330;28;20063;-66
2023/12/05 02:22:40;;;;;;;8.07;7.28;;;6.00;99.90;;;;;;5093611;28;20064;-66
2023/12/05 02:25:06;;;;;;;8.48;7.18;;;6.00;99.90;;;;;;5088117;28;20036;-66
2023/12/05 02:27:33;;;;;;;6.93;6.20;;;6.00;99.90;;;;;;5093862;28;20067;-66
2023/12/05 02:30:00;;;;;;;7.75;6.72;;;5.90;99.90;;;;;;5093158;28;20051;-66
2023/12/05 02:32:27;;;;;;;9.15;7.28;;;6.00;99.90;;;;;;5093811;28;20040;-66
2023/12/05 02:34:53;;;;;;;8.20;7.38;;;5.90;99.90;;;;;;5094204;28;20040;-66
2023/12/05 02:37:20;;;;;;;8.35;7.53;;;5.90;99.90;;;;;;5097210;28;20067;-66
2023/12/05 02:39:47;;;;;;;7.78;6.97;;;6.00;99.90;;;;;;5097479;28;20048;-66
2023/12/05 02:42:14;;;;;;;7.07;6.38;;;6.00;99.90;;;;;;5097144;28;20076;-66
2023/12/05 02:44:41;;;;;;;7.13;6.43;;;6.00;99.90;;;;;;5097489;28;20489;-66
2023/12/05 02:47:08;;;;;;;7.68;6.97;;;6.00;99.90;;;;;;5097423;28;20473;-66
2023/12/05 02:49:34;;;;;;;7.75;6.95;;;6.00;99.90;;;;;;5096994;28;20040;-66
2023/12/05 02:52:01;;;;;;;7.55;6.85;;;6.00;99.90;;;;;;5097015;28;20097;-66
2023/12/05 02:54:28;;;;;;;8.45;6.60;;;5.90;99.90;;;;;;5096115;28;20480;-66
2023/12/05 02:56:55;;;;;;;7.40;6.65;;;5.90;99.90;;;;;;5097484;28;20040;-66
2023/12/05 02:59:22;;;;;;;6.97;6.30;;;5.90;99.90;;;;;;5097324;28;20044;-66
2023/12/05 03:01:49;;;;;;;8.43;7.15;;;6.00;99.90;;;;;;5096980;28;20131;-66
2023/12/05 03:04:17;;;;;;;7.03;6.18;;;5.90;99.90;;;;;;5097150;28;20042;-66
2023/12/05 03:06:44;;;;;;;7.38;6.65;;;5.90;99.90;;;;;;5097109;28;20466;-65
2023/12/05 03:09:12;;;;;;;7.57;6.78;;;5.90;99.90;;;;;;5097116;28;20078;-65
2023/12/05 03:11:38;;;;;;;8.45;7.65;;;5.90;99.90;;;;;;5097188;28;20040;-66
2023/12/05 03:14:05;;;;;;;8.52;7.47;;;5.90;99.90;;;;;;5097090;28;20488;-66
2023/12/05 03:16:32;;;;;;;9.90;8.10;;;5.90;99.90;;;;;;5097107;28;20036;-66
2023/12/05 03:18:59;;;;;;;9.27;8.27;;;5.90;99.90;;;;;;5096525;28;20035;-66
2023/12/05 03:21:26;;;;;;;8.68;7.88;;;6.00;99.90;;;;;;5096612;28;20043;-66
2023/12/05 03:23:53;;;;;;;8.35;7.47;;;6.00;99.90;;;;;;5095301;28;20032;-72
2023/12/05 03:26:20;;;;;;;8.98;8.10;;;6.00;99.90;;;;;;5096541;28;20123;-72
2023/12/05 03:28:47;;;;;;;9.55;8.63;;;6.00;99.90;;;;;;5096284;28;20043;-73
2023/12/05 03:31:14;;;;;;;10.15;9.05;;;6.00;99.90;;;;;;5096836;28;20127;-73
2023/12/05 03:33:41;;;;;;;9.80;8.80;;;6.00;99.90;;;;;;5096449;28;20116;-73
2023/12/05 03:36:08;;;;;;;8.73;7.90;;;6.00;99.90;;;;;;5096424;28;20068;-74
2023/12/05 03:38:34;;;;;;;9.68;8.77;;;6.00;99.90;;;;;;5096100;28;20044;-73
2023/12/05 03:41:01;;;;;;;9.35;8.35;;;6.00;99.90;;;;;;5096065;28;20123;-73
2023/12/05 03:43:28;;;;;;;9.02;8.13;;;6.00;99.90;;;;;;5095985;28;20047;-73
2023/12/05 03:45:55;;;;;;;9.23;8.32;;;6.00;99.90;;;;;;5095733;28;20093;-72
2023/12/05 03:48:22;;;;;;;9.68;8.70;;;5.90;99.90;;;;;;5095525;28;20044;-72
2023/12/05 03:50:49;;;;;;;9.35;8.35;;;5.90;99.90;;;;;;5096358;28;20067;-72
2023/12/05 03:53:15;;;;;;;11.20;9.57;;;5.90;99.90;;;;;;5095999;28;20051;-72
2023/12/05 03:55:42;;;;;;;9.85;8.85;;;5.90;99.90;;;;;;5095808;28;20054;-72
2023/12/05 03:58:09;;;;;;;10.20;9.07;;;5.90;99.90;;;;;;5095752;28;20048;-72
2023/12/05 04:00:36;;;;;;;10.00;9.00;;;6.00;99.90;;;;;;5095994;28;20496;-72
2023/12/05 04:03:03;;;;;;;10.30;9.30;;;6.00;99.90;;;;;;5096127;28;20032;-72
2023/12/05 04:05:30;;;;;;;10.80;9.45;;;6.00;99.90;;;;;;5094908;28;20089;-72
2023/12/05 04:07:57;;;;;;;11.27;10.07;;;6.00;99.90;;;;;;5094666;28;20044;-72
2023/12/05 04:10:23;;;;;;;10.95;9.95;;;6.00;99.90;;;;;;5079816;28;20067;-72
2023/12/05 04:12:53;;;;;;;11.90;10.70;;;5.90;99.90;;;;;;5075830;28;20090;-72
2023/12/05 04:15:20;;;;;;;11.98;10.25;;;6.00;99.90;;;;;;5075559;28;20450;-72
2023/12/05 04:17:47;;;;;;;12.00;10.40;;;6.00;99.90;;;;;;5075618;28;20044;-72
2023/12/05 04:20:14;;;;;;;11.40;10.20;;;5.90;99.90;;;;;;5073828;28;20047;-72
2023/12/05 04:22:41;;;;;;;11.38;10.27;;;6.00;99.90;;;;;;5075378;28;20060;-72
2023/12/05 04:25:08;;;;;;;12.07;10.88;;;6.00;99.90;;;;;;5075428;28;20064;-72
2023/12/05 04:27:35;;;;;;;12.57;11.00;;;6.00;99.90;;;;;;5075246;28;20043;-72
2023/12/05 04:30:02;;;;;;;13.20;11.88;;;6.00;99.90;;;;;;5073888;28;20450;-72
2023/12/05 04:32:29;;;;;;;12.73;11.52;;;6.00;99.90;;;;;;5075288;28;20045;-72
2023/12/05 04:34:56;;;;;;;13.77;12.38;;;6.00;99.90;;;;;;5075037;28;20486;-73
2023/12/05 04:37:22;;;;;;;12.73;11.45;;;6.00;99.90;;;;;;5074769;28;20048;-72
2023/12/05 04:39:49;;;;;;;12.77;11.48;;;6.00;99.90;;;;;;5074833;28;20102;-72
2023/12/05 04:42:16;;;;;;;13.30;11.90;;;5.90;99.90;;;;;;5087222;28;20048;-72
2023/12/05 04:44:43;;;;;;;14.20;12.70;;;5.90;99.90;;;;;;5095192;28;20043;-72
2023/12/05 04:47:10;;;;;;;15.30;13.18;;;5.90;99.90;;;;;;5094892;28;20123;-72
2023/12/05 04:49:37;;;;;;;16.02;12.65;;;6.00;99.90;;;;;;5077099;28;20054;-72
2023/12/05 04:52:05;;;;;;;14.13;12.73;;;5.90;99.90;;;;;;5094760;28;20044;-72
2023/12/05 04:54:32;;;;;;;15.68;12.88;;;5.90;99.90;;;;;;5095120;28;20046;-72
2023/12/05 04:56:59;;;;;;;13.77;12.07;;;5.90;99.90;;;;;;5094902;28;20040;-72
2023/12/05 04:59:29;;;;;;;14.27;12.85;;;5.90;99.90;;;;;;5094279;28;20043;-72
2023/12/05 05:01:56;;;;;;;13.73;12.32;;;5.90;99.90;;;;;;5094980;28;20040;-72
2023/12/05 05:04:23;;;;;;;13.10;11.80;;;6.00;99.90;;;;;;5094870;28;20051;-72
2023/12/05 05:06:50;;;;;;;13.55;12.18;;;5.90;99.90;;;;;;5094585;28;20086;-72
2023/12/05 05:09:17;;;;;;;14.73;13.13;;;5.90;99.90;;;;;;5094703;28;20044;-72
2023/12/05 05:11:43;;;;;;;14.50;12.80;;;6.00;99.90;;;;;;5094302;28;20497;-72
2023/12/05 05:14:10;;;;;;;15.80;13.30;;;5.90;99.90;;;;;;5094793;28;20101;-72
2023/12/05 05:16:37;;;;;;;15.73;13.73;;;6.00;99.90;;;;;;5093693;28;20044;-67
2023/12/05 05:19:05;;;;;;;16.15;14.45;;;6.00;99.90;;;;;;5094488;28;20055;-66
2023/12/05 05:21:32;;;;;;;16.67;13.23;;;5.90;99.90;;;;;;5094152;28;20032;-66
2023/12/05 05:23:59;;;;;;;18.88;14.18;;;5.90;99.90;;;;;;5094272;28;20063;-67
2023/12/05 05:26:26;;;;;;;15.60;13.95;;;6.00;99.90;;;;;;5094403;28;20039;-66
2023/12/05 05:28:52;;;;;;;15.70;13.95;;;6.00;99.90;;;;;;5094185;28;20484;-66
2023/12/05 05:31:19;;;;;;;14.65;13.10;;;6.00;99.90;;;;;;5094620;28;20126;-66
2023/12/05 05:33:46;;;;;;;14.93;13.32;;;5.90;99.90;;;;;;5094190;28;20397;-66
2023/12/05 05:36:13;;;;;;;16.00;14.23;;;5.90;99.90;;;;;;5092817;28;20043;-72
2023/12/05 05:38:40;;;;;;;15.23;13.63;;;5.90;99.90;;;;;;5094131;28;20113;-72
2023/12/05 05:41:07;;;;;;;16.25;14.07;;;5.90;99.90;;;;;;5093714;28;20127;-72
2023/12/05 05:43:34;;;;;;;15.75;14.15;;;5.90;99.90;;;;;;5092862;28;20036;-72
2023/12/05 05:46:01;;;;;;;15.07;13.48;;;6.00;99.90;;;;;;5093105;28;20040;-72
2023/12/05 05:48:28;;;;;;;17.35;13.30;;;6.00;99.90;;;;;;5092595;28;20032;-72
2023/12/05 05:50:55;;;;;;;14.45;12.77;;;5.90;99.90;;;;;;5093960;28;20063;-66
2023/12/05 05:53:22;;;;;;;14.85;13.35;;;5.90;99.90;;;;;;5094199;28;20093;-67
2023/12/05 05:55:49;;;;;;;13.48;12.07;;;5.90;99.90;;;;;;5093584;28;20044;-66
2023/12/05 05:58:16;;;;;;;14.25;12.70;;;5.90;99.90;;;;;;5093572;28;20117;-67
2023/12/05 06:00:42;;;;;;;15.65;12.75;;;5.90;99.90;;;;;;5092268;28;20086;-67
2023/12/05 06:03:09;;;;;;;13.63;12.32;;;5.90;99.90;;;;;;5093691;28;20044;-72
2023/12/05 06:05:36;;;;;;;13.55;12.15;;;5.90;99.90;;;;;;5092696;28;20105;-72
2023/12/05 06:08:03;;;;;;;13.30;11.90;;;5.90;99.90;;;;;;5093807;28;20040;-72
2023/12/05 06:10:30;;;;;;;14.18;11.57;;;6.00;99.90;;;;;;5091820;28;20069;-72
2023/12/05 06:12:57;;;;;;;13.65;11.95;;;6.00;99.90;;;;;;5093446;28;20550;-72
2023/12/05 06:15:23;;;;;;;14.40;12.88;;;6.00;99.90;;;;;;5094105;28;20071;-72
2023/12/05 06:17:50;;;;;;;13.90;12.50;;;5.90;99.90;;;;;;5092238;28;20423;-72
2023/12/05 06:20:17;;;;;;;13.20;11.90;;;5.90;99.90;;;;;;5092376;28;20051;-72
2023/12/05 06:22:44;;;;;;;12.60;11.30;;;5.90;99.90;;;;;;5093704;28;20401;-72
2023/12/05 06:25:10;;;;;;;12.38;11.07;;;5.90;99.90;;;;;;5093862;28;20040;-72
2023/12/05 06:27:37;;;;;;;13.18;11.88;;;5.90;99.90;;;;;;5092577;28;20046;-72
2023/12/05 06:30:04;;;;;;;14.05;12.05;;;5.90;99.90;;;;;;5093961;28;20040;-72
2023/12/05 06:32:46;;;;;;;16.27;11.93;;;5.90;99.90;;;;;;5093264;28;20048;-72
2023/12/05 06:35:13;;;;;;;13.63;11.57;;;5.90;99.90;;;;;;5092436;28;20059;-72
2023/12/05 06:37:40;;;;;;;13.10;11.80;;;5.90;99.90;;;;;;5092268;28;20048;-72
2023/12/05 06:40:06;;;;;;;12.93;11.57;;;5.90;99.90;;;;;;5093583;28;20082;-72
2023/12/05 06:42:34;;;;;;;12.77;11.48;;;5.90;99.90;;;;;;5093017;28;20395;-72
2023/12/05 06:45:01;;;;;;;13.52;12.13;;;5.90;99.90;;;;;;5093814;28;20046;-72
2023/12/05 06:47:28;;;;;;;12.45;11.15;;;5.80;99.90;;;;;;5093175;28;20036;-72
2023/12/05 06:49:59;;;;;;;14.27;12.77;;;5.80;99.90;;;;;;5093449;28;20032;-72
2023/12/05 06:52:26;;;;;;;13.23;11.95;;;5.80;99.90;;;;;;5093331;28;20067;-72
2023/12/05 06:54:53;;;;;;;13.25;11.95;;;5.80;99.90;;;;;;5091887;28;20044;-72
2023/12/05 06:57:19;;;;;;;13.35;11.93;;;5.80;99.90;;;;;;5093144;28;20044;-71
2023/12/05 06:59:46;;;;;;;13.27;11.98;;;5.80;99.90;;;;;;5093507;28;20363;-72
2023/12/05 07:02:13;;;;;;;13.77;12.35;;;5.80;99.90;;;;;;5091786;28;20078;-72
2023/12/05 07:04:40;;;;;;;12.63;11.32;;;5.80;99.90;;;;;;5093249;28;20115;-72
2023/12/05 07:07:07;;;;;;;13.75;12.35;;;5.80;99.90;;;;;;5093264;28;20044;-72
2023/12/05 07:09:34;;;;;;;14.93;13.20;;;5.80;99.90;;;;;;5093057;28;20042;-72
2023/12/05 07:12:00;;;;;;;15.68;12.68;;;5.80;99.90;;;;;;5092941;28;20040;-72
2023/12/05 07:14:27;;;;;;;14.82;13.15;;;5.80;99.90;;;;;;5093160;28;20055;-72
2023/12/05 07:16:55;;;;;;;14.13;12.57;;;5.80;99.90;;;;;;5091688;28;20094;-72
2023/12/05 07:19:21;;;;;;;14.25;12.75;;;5.90;99.90;;;;;;5092709;28;20040;-72
2023/12/05 07:21:50;;;;;;;13.82;12.43;;;5.90;99.90;;;;;;5094698;28;20040;-72
2023/12/05 07:24:16;;;;;;;13.60;12.20;;;5.90;99.90;;;;;;5096721;28;20441;-72
2023/12/05 07:26:43;;;;;;;15.60;12.63;;;5.90;99.90;;;;;;5096479;28;20048;-72
2023/12/05 07:29:10;;;;;;;13.95;12.52;;;5.90;99.90;;;;;;5096835;28;20036;-72
2023/12/05 07:31:37;;;;;;;14.75;13.25;;;5.90;99.90;;;;;;5096860;28;20066;-72
2023/12/05 07:34:04;;;;;;;14.40;12.93;;;5.80;99.90;;;;;;5096152;28;20043;-66
2023/12/05 07:36:31;;;;;;;13.75;12.27;;;5.80;99.90;;;;;;5096719;28;20469;-66
2023/12/05 07:38:59;;;;;;;14.07;12.57;;;5.90;99.90;;;;;;5096349;28;20048;-66
2023/12/05 07:41:25;;;;;;;15.20;12.32;;;5.80;99.90;;;;;;5096006;28;20054;-72
2023/12/05 07:43:52;;;;;;;15.05;12.77;;;5.80;99.90;;;;;;5096911;28;20046;-72
2023/12/05 07:46:19;;;;;;;14.23;12.75;;;5.80;99.90;;;;;;5097978;28;20480;-72
2023/12/05 07:48:46;;;;;;;14.25;12.75;;;5.80;99.90;;;;;;5097106;28;20047;-72
2023/12/05 07:51:13;;;;;;;15.13;12.68;;;5.90;99.90;;;;;;5097110;28;20036;-72
2023/12/05 07:53:39;;;;;;;14.00;12.48;;;5.80;99.90;;;;;;5099706;28;20040;-72
2023/12/05 07:56:06;;;;;;;14.65;12.63;;;5.80;99.90;;;;;;5097222;28;20060;-72
2023/12/05 07:58:33;;;;;;;14.35;11.75;;;5.80;99.90;;;;;;5098171;28;20425;-72
2023/12/05 08:01:00;;;;;;;13.70;11.40;;;5.90;99.90;;;;;;5096972;28;20044;-72
2023/12/05 08:03:28;;;;;;;13.20;11.57;;;5.90;99.90;;;;;;5097182;28;20477;-72
2023/12/05 08:05:55;;;;;;;13.55;11.63;;;5.90;99.90;;;;;;5096208;28;20085;-72
2023/12/05 08:08:23;;;;;;;15.10;11.98;;;5.90;99.90;;;;;;5095427;28;20054;-72
2023/12/05 08:10:50;;;;;;;13.60;11.77;;;5.90;99.90;;;;;;5095774;28;20060;-71
2023/12/05 08:13:17;;;;;;;13.90;11.20;;;5.90;99.90;;;;;;5095809;28;20040;-72
2023/12/05 08:15:44;;;;;;;13.13;11.52;;;5.90;99.90;;;;;;5094435;28;20505;-72
2023/12/05 08:18:10;;;;;;;19.52;12.10;;;5.90;99.90;;;;;;5095979;28;20446;-71
2023/12/05 08:20:37;;;;;;;14.02;11.10;;;5.90;99.90;;;;;;5095614;28;20043;-72
2023/12/05 08:23:04;;;;;;;16.23;11.50;;;5.80;99.90;;;;;;5093939;28;20039;-66
2023/12/05 08:25:32;;;;;;;18.67;12.38;;;5.80;99.90;;;;;;5094150;28;20060;-66
2023/12/05 08:27:58;;;;;;;15.80;11.82;;;5.80;99.90;;;;;;5095201;28;20055;-66
2023/12/05 08:30:25;;;;;;;15.15;11.88;;;5.80;99.90;;;;;;5095130;28;20032;-66
2023/12/05 08:32:52;;;;;;;14.77;12.25;;;5.80;99.90;;;;;;5094711;28;20118;-66
2023/12/05 08:35:19;;;;;;;13.23;11.73;;;5.80;99.90;;;;;;5093384;28;20040;-65
2023/12/05 08:37:46;;;;;;;16.92;12.40;;;5.80;99.90;;;;;;5089342;28;20431;-66
2023/12/05 08:40:13;;;;;;;14.82;11.85;;;5.80;99.90;;;;;;5095151;28;20150;-66
2023/12/05 08:42:42;;;;;;;14.98;13.38;;;5.80;99.90;;;;;;5079032;28;20421;-65
2023/12/05 08:45:10;;;;;;;16.98;12.93;;;5.80;99.90;;;;;;5074802;28;20072;-66
2023/12/05 08:47:36;;;;;;;16.30;12.70;;;5.80;99.90;;;;;;5073794;28;20041;-66
2023/12/05 08:50:03;;;;;;;16.42;11.40;;;5.80;99.90;;;;;;5074312;28;20492;-66
2023/12/05 08:52:30;;;;;;;16.25;11.73;;;5.80;99.90;;;;;;5074840;28;20036;-65
2023/12/05 08:54:57;;;;;;;16.63;12.68;;;5.80;99.90;;;;;;5074756;28;20040;-66
2023/12/05 08:57:23;;;;;;;16.50;12.07;;;5.70;99.90;;;;;;5090446;28;20355;-65
2023/12/05 08:59:51;;;;;;;18.08;13.00;;;5.70;99.90;;;;;;5074121;28;20090;-66
2023/12/05 09:02:18;;;;;;;13.80;11.82;;;5.80;99.90;;;;;;5074490;28;20090;-65
2023/12/05 09:04:44;;;;;;;15.25;12.55;;;5.70;99.90;;;;;;5074464;28;20437;-72
2023/12/05 09:07:11;;;;;;;16.75;12.27;;;5.70;99.90;;;;;;5074311;28;20040;-71
2023/12/05 09:09:41;;;;;;;17.13;12.73;;;5.70;99.90;;;;;;5076441;28;20449;-71
2023/12/05 09:12:08;;;;;;;16.23;11.93;;;5.80;99.90;;;;;;5088123;28;20036;-71
2023/12/05 09:14:35;;;;;;;18.73;12.68;;;5.80;99.90;;;;;;5076761;28;20452;-71
2023/12/05 09:17:03;;;;;;;18.60;11.75;;;5.80;99.90;;;;;;5081345;28;20040;-71
2023/12/05 09:19:30;;;;;;;16.92;12.13;;;5.80;99.90;;;;;;5078754;28;20071;-71
2023/12/05 09:21:57;;;;;;;17.70;11.93;;;5.80;99.90;;;;;;5073868;28;20044;-71
2023/12/05 09:24:24;;;;;;;16.70;10.40;;;5.80;99.90;;;;;;5079395;28;20044;-71
2023/12/05 09:26:52;;;;;;;14.32;11.52;;;5.80;99.90;;;;;;5073654;28;20087;-71
2023/12/05 09:29:18;;;;;;;17.05;12.30;;;5.90;99.90;;;;;;5073487;28;20083;-71
2023/12/05 09:31:45;;;;;;;16.92;12.73;;;5.80;99.90;;;;;;5080534;28;20036;-66
2023/12/05 09:34:12;;;;;;;18.90;12.45;;;5.80;99.90;;;;;;5082623;28;20032;-66
2023/12/05 09:36:40;;;;;;;16.35;10.85;;;5.80;99.90;;;;;;5093019;28;20120;-66
2023/12/05 09:39:06;;;;;;;14.48;10.63;;;5.80;99.90;;;;;;5082741;28;20038;-66
2023/12/05 09:41:33;;;;;;;17.48;11.40;;;5.70;99.90;;;;;;5073290;28;20443;-66
2023/12/05 09:44:01;;;;;;;16.02;11.80;;;5.70;99.90;;;;;;5073183;28;20045;-66
2023/12/05 09:46:28;;;;;;;12.75;10.77;;;5.70;99.90;;;;;;5073091;28;20513;-66
2023/12/05 09:49:03;;;;;;;17.80;11.23;;;5.70;99.90;;;;;;5072139;28;20116;-66
2023/12/05 09:51:30;;;;;;;19.20;11.15;;;5.60;99.90;;;;;;5073517;28;20117;-66
2023/12/05 09:53:57;;;;;;;16.50;9.63;;;5.70;99.90;;;;;;5072008;28;20066;-66
2023/12/05 09:56:24;;;;;;;14.25;10.88;;;5.60;99.90;;;;;;5073237;28;20040;-66
2023/12/05 09:58:50;;;;;;;15.63;10.68;;;5.70;99.90;;;;;;5073367;28;20482;-66
2023/12/05 10:01:17;;;;;;;14.88;11.43;;;5.70;99.90;;;;;;5076770;28;20093;-66
2023/12/05 10:03:44;;;;;;;15.95;10.30;;;5.70;99.90;;;;;;5086832;28;20032;-68
2023/12/05 10:06:12;;;;;;;11.75;10.32;;;5.70;99.90;;;;;;5073391;28;20048;-67
2023/12/05 10:08:38;;;;;;;16.60;10.85;;;5.70;99.90;;;;;;5073060;28;20033;-65
2023/12/05 10:11:05;;;;;;;13.02;9.80;;;5.70;99.90;;;;;;5072888;28;20040;-67
2023/12/05 10:13:32;;;;;;;14.65;9.50;;;5.70;99.90;;;;;;5073037;28;20043;-67
2023/12/05 10:15:59;;;;;;;14.15;9.68;;;5.70;99.90;;;;;;5071832;28;20413;-67
2023/12/05 10:18:26;;;;;;;16.67;8.98;;;5.60;99.90;;;;;;5071493;28;20123;-67
2023/12/05 10:20:53;;;;;;;12.98;9.98;;;5.70;99.90;;;;;;5073003;28;20114;-67
2023/12/05 10:23:20;;;;;;;15.60;10.18;;;5.70;99.90;;;;;;5073049;28;20048;-67
2023/12/05 10:25:47;;;;;;;15.00;10.23;;;5.80;99.90;;;;;;5073517;28;20135;-67
2023/12/05 10:28:14;;;;;;;17.70;10.48;;;5.80;99.90;;;;;;5073558;28;20037;-67
2023/12/05 10:30:40;;;;;;;16.02;9.90;;;5.80;99.90;;;;;;5071415;28;20569;-68
2023/12/05 10:33:07;;;;;;;24.30;10.90;;;5.80;99.90;;;;;;5090505;28;20445;-67
2023/12/05 10:35:34;;;;;;;16.05;10.07;;;5.80;99.90;;;;;;5091665;28;20120;-67
2023/12/05 10:38:08;;;;;;;16.88;10.13;;;5.80;99.90;;;;;;5092669;28;20048;-66
2023/12/05 10:40:34;;;;;;;13.25;10.02;;;5.80;99.90;;;;;;5092593;28;20039;-67
2023/12/05 10:43:03;;;;;;;16.23;11.43;;;5.80;99.90;;;;;;5091725;28;20056;-67
2023/12/05 10:45:30;;;;;;;15.80;9.95;;;5.80;99.90;;;;;;5055542;28;20455;-66
2023/12/05 10:47:57;;;;;;;15.13;10.35;;;5.90;99.90;;;;;;5072855;28;20120;-66
2023/12/05 10:50:24;;;;;;;19.58;11.82;;;5.90;99.90;;;;;;5073366;28;20040;-66
2023/12/05 10:52:51;;;;;;;15.07;10.32;;;5.90;99.90;;;;;;5073200;28;20369;-67
2023/12/05 10:55:18;;;;;;;15.23;9.43;;;5.90;99.90;;;;;;5072427;28;20048;-66
2023/12/05 10:57:44;;;;;;;21.77;9.77;;;5.90;99.90;;;;;;5076296;28;20127;-66
2023/12/05 11:00:11;;;;;;;16.50;10.05;;;5.90;99.90;;;;;;5076434;28;20111;-67
2023/12/05 11:02:38;;;;;;;20.30;10.55;;;5.90;99.90;;;;;;5090134;28;20040;-66
2023/12/05 11:05:05;;;;;;;17.75;9.38;;;6.00;99.90;;;;;;5095560;28;20064;-66
2023/12/05 11:07:32;;;;;;;14.98;9.15;;;5.90;99.90;;;;;;5095945;28;20042;-65
2023/12/05 11:09:58;;;;;;;16.83;9.32;;;5.90;99.90;;;;;;5095725;28;20040;-65
2023/12/05 11:12:26;;;;;;;18.73;9.35;;;6.00;99.90;;;;;;5095880;28;20451;-65
2023/12/05 11:14:52;;;;;;;19.20;9.57;;;6.00;99.90;;;;;;5095641;28;20130;-65
2023/12/05 11:17:19;;;;;;;17.50;9.57;;;6.00;99.90;;;;;;5095736;28;20044;-67
2023/12/05 11:19:46;;;;;;;15.73;10.00;;;6.00;99.90;;;;;;5076230;28;20063;-64
2023/12/05 11:22:13;;;;;;;16.83;9.35;;;6.00;99.90;;;;;;5076078;28;20127;-64
2023/12/05 11:24:40;;;;;;;13.88;8.25;;;6.00;99.90;;;;;;5075868;28;20036;-65
2023/12/05 11:27:08;;;;;;;14.85;9.35;;;6.00;99.90;;;;;;5075957;28;20059;-65
2023/12/05 11:29:35;;;;;;;16.63;8.32;;;6.00;99.90;;;;;;5076159;28;20466;-66
2023/12/05 11:32:02;;;;;;;13.02;7.40;;;6.10;99.90;;;;;;5083813;28;20028;-65
2023/12/05 11:34:28;;;;;;;15.30;9.15;;;6.10;99.90;;;;;;5088085;28;20041;-66
2023/12/05 11:36:56;;;;;;;13.02;7.97;;;6.00;99.90;;;;;;5083618;28;20128;-66
2023/12/05 11:39:23;;;;;;;14.18;8.52;;;6.00;99.90;;;;;;5075984;28;20094;-65
2023/12/05 11:41:50;;;;;;;14.13;8.60;;;6.00;99.90;;;;;;5075440;28;20055;-65
2023/12/05 11:44:16;;;;;;;15.48;9.75;;;6.00;99.90;;;;;;5082781;28;20055;-65
2023/12/05 11:46:43;;;;;;;12.90;7.93;;;6.10;99.90;;;;;;5086379;28;20068;-66
2023/12/05 11:49:10;;;;;;;17.35;8.50;;;6.10;99.90;;;;;;5095007;28;20089;-66
2023/12/05 11:51:37;;;;;;;16.17;7.97;;;6.10;99.90;;;;;;5095044;28;20051;-66
2023/12/05 11:54:04;;;;;;;12.45;8.05;;;6.10;99.90;;;;;;5086118;28;20048;-66
2023/12/05 11:56:31;;;;;;;14.95;7.97;;;6.20;99.90;;;;;;5075241;28;20047;-66
2023/12/05 11:58:57;;;;;;;18.08;8.30;;;6.20;99.90;;;;;;5075135;28;20049;-66
2023/12/05 12:01:24;;;;;;;15.55;8.18;;;6.20;99.90;;;;;;5083048;28;20089;-66
2023/12/05 12:03:51;;;;;;;14.07;8.55;;;6.20;99.90;;;;;;5094871;28;20368;-66
2023/12/05 12:06:21;;;;;;;13.13;7.38;;;6.20;99.90;;;;;;5094749;28;20202;-66
2023/12/05 12:08:49;;;;;;;14.80;7.45;;;6.20;99.90;;;;;;5085649;28;20032;-67
2023/12/05 12:11:15;;;;;;;16.40;8.05;;;6.30;99.90;;;;;;5074044;28;20102;-67
2023/12/05 12:13:43;;;;;;;18.83;8.02;;;6.30;99.90;;;;;;5075192;28;20404;-67
2023/12/05 12:16:10;;;;;;;13.80;7.03;;;6.30;99.90;;;;;;5075084;28;20040;-67
2023/12/05 12:18:37;;;;;;;17.73;7.70;;;6.30;99.90;;;;;;5077417;28;20052;-67
2023/12/05 12:21:16;;;;;;;13.07;6.97;;;6.30;99.90;;;;;;5076129;28;20127;-68
2023/12/05 12:23:43;;;;;;;13.13;6.55;;;6.30;99.90;;;;;;5074549;28;20131;-67
2023/12/05 12:26:10;;;;;;;13.43;6.70;;;6.30;99.90;;;;;;5074946;28;20103;-67
2023/12/05 12:28:36;;;;;;;11.57;6.88;;;6.40;99.90;;;;;;5087996;28;20040;-67
2023/12/05 12:31:04;;;;;;;14.27;6.85;;;6.40;99.90;;;;;;5094196;28;20044;-67
2023/12/05 12:33:30;;;;;;;15.93;6.10;;;6.40;99.90;;;;;;5092798;28;20463;-67
2023/12/05 12:35:57;;;;;;;15.23;6.47;;;6.40;99.90;;;;;;5094097;28;20063;-67
2023/12/05 12:38:24;;;;;;;17.77;6.60;;;6.40;99.90;;;;;;5093977;28;20090;-66
2023/12/05 12:40:51;;;;;;;13.95;6.03;;;6.40;99.90;;;;;;5074059;28;20406;-67